Airfield :
LOGIN :

Register | Disclaimer

   EN    FR    IT 

 










Legend :    VFR   Marginal VFR   IFR   Intensive IFR   Very Intensive IFR
Visi :
Ceiling :
>= 8 km
>= 3000ft
5 to 8 km
1000 to 3000 ft
1500m to 5 km
500 to 1000 ft
800 to 1500m
200 to 500 ft
< 800m
< 200 ft
Symbols :   Thunderstorms  Fog  Heavy snow  Heavy precipitations  Wind > 20 kt
SIGMETs :     Misc.  Thunderstorms  Icing  Turbulence  Mountain Waves  Volcanic Ashes






- Airport Elevation : 622 ft
- IATA code : BRS


EGGD - Bristol Int.

CURRENT METAR :
  • 080220Z AUTO 22016KT 2500 RADZ OVC003 10/10 Q1000

EXPIRED METARs :
  • 080150Z AUTO 22014KT 9999 -RA OVC004 10/09 Q1000 RERA
  • 080120Z AUTO 21013KT 3000 +RA OVC004/// //////CB 10/09 Q1001 REDZ
  • 080050Z AUTO 21016G26KT 3300 +RA OVC005/// //////TCU 10/09 Q1002
  • 080020Z AUTO 21015KT 3100 +RA OVC006/// //////TCU 09/09 Q1002
  • 072350Z AUTO 19017G27KT 160V220 4200 RA BKN007/// OVC042/// //////TCU 09/08 Q1002 RERA

TAF AMD TAF EGGD
Valid from the 08 at 01:00 until the 09 at 00:00 UTC


080130Z 0801/0824 20018G28KT 9999 BKN004
BECMG 0801/0803 25018KT FEW010 SCT025
TEMPO 0801/0803 6000 RA
PROB30
TEMPO 0801/0803 3000 +RA BR
TEMPO 0806/0821 27022G36KT 6000 SHRA
PROB30
TEMPO 0812/0821 4000 +SHRA BKN010 BKN020CB
BECMG 0821/0824 27022G32KT
TEMPO 0821/0824 4000 SHRA BKN010
PROB30
TEMPO 0821/0824 27028G42KT +SHRA
ATIS : +44 1275 473 666



MET'MAP, your aeronautical weather chart ! - Copyright ORBIFLY December 2007 - Disclaimer

ORBIFLY MET'MAP TEAM :

Programming & Development : Alexandra Zaïnal
Concept & original design : Baudouin d'Aumeries
Assistance for programming : Marc-Olivier Méhu
Technical & hardware support : Manuel Goepfert

Contact : metmap@orbifly.com




SOURCES & CREDITS :

   NOAA